createdAt,value
2019-01-14T00:03:02.848Z,3.00
2019-01-14T00:06:10.211Z,3.33
2019-01-14T00:09:13.001Z,3.13
2019-01-14T00:12:17.066Z,3.40
2019-01-14T00:15:21.119Z,3.53
2019-01-14T00:18:25.140Z,2.77
2019-01-14T00:21:29.174Z,3.63
2019-01-14T00:24:33.065Z,3.03
2019-01-14T00:27:36.992Z,2.40
2019-01-14T00:30:40.777Z,2.93
2019-01-14T00:33:44.723Z,2.63
2019-01-14T00:36:48.656Z,2.90
2019-01-14T00:39:52.573Z,3.30
2019-01-14T00:42:56.456Z,3.70
2019-01-14T00:46:00.335Z,3.17
2019-01-14T00:49:04.909Z,2.30
2019-01-14T00:52:08.906Z,2.77
2019-01-14T00:55:13.280Z,3.17
2019-01-14T00:58:17.154Z,2.87
2019-01-14T01:01:21.210Z,2.07
2019-01-14T01:04:25.081Z,3.53
2019-01-14T01:07:28.919Z,2.57
2019-01-14T01:10:32.718Z,3.20
2019-01-14T01:13:36.525Z,3.27
2019-01-14T01:16:40.764Z,2.50
2019-01-14T01:19:44.596Z,2.97
2019-01-14T01:22:48.566Z,3.40
2019-01-14T01:25:52.439Z,2.90
2019-01-14T01:28:56.220Z,2.83
2019-01-14T01:32:00.106Z,3.20
2019-01-14T01:35:04.876Z,4.23
2019-01-14T01:38:08.850Z,4.17
2019-01-14T01:41:12.997Z,2.90
2019-01-14T01:44:16.931Z,3.43
2019-01-14T01:47:20.837Z,3.17
2019-01-14T01:50:27.108Z,2.27
2019-01-14T01:53:30.999Z,3.47
2019-01-14T01:56:35.277Z,2.17
2019-01-14T01:59:39.156Z,2.10
2019-01-14T02:02:43.121Z,2.60
2019-01-14T02:05:47.006Z,2.23
2019-01-14T02:08:50.878Z,2.57
2019-01-14T02:11:54.755Z,2.50
2019-01-14T02:14:58.556Z,1.73
2019-01-14T02:18:02.426Z,1.20
2019-01-14T02:21:06.370Z,1.70
2019-01-14T02:24:10.155Z,2.37
2019-01-14T02:27:13.976Z,1.60
2019-01-14T02:30:22.973Z,2.43
2019-01-14T02:33:26.873Z,2.27
2019-01-14T02:36:30.759Z,1.80
2019-01-14T02:39:34.672Z,2.03
2019-01-14T02:42:38.464Z,1.60
2019-01-14T02:45:42.377Z,2.47
2019-01-14T02:48:46.930Z,1.43
2019-01-14T02:51:50.780Z,1.93
2019-01-14T02:54:54.528Z,1.30
2019-01-14T02:57:58.364Z,1.73
2019-01-14T03:01:02.300Z,2.33
2019-01-14T03:04:06.188Z,1.23
2019-01-14T03:07:11.614Z,2.30
2019-01-14T03:10:15.566Z,2.00
2019-01-14T03:13:19.359Z,2.53
2019-01-14T03:16:23.430Z,2.57
2019-01-14T03:19:27.297Z,2.73
2019-01-14T03:22:31.178Z,2.20
2019-01-14T03:25:34.976Z,2.63
2019-01-14T03:28:38.927Z,3.23
2019-01-14T03:31:42.756Z,2.43
2019-01-14T03:34:46.560Z,3.13
2019-01-14T03:37:50.436Z,3.00
2019-01-14T03:40:54.309Z,2.27
2019-01-14T03:43:58.202Z,2.73
2019-01-14T03:47:02.114Z,3.43
2019-01-14T03:50:09.686Z,3.53
2019-01-14T03:53:13.522Z,3.57
2019-01-14T03:56:17.472Z,2.83
2019-01-14T03:59:21.570Z,3.00
2019-01-14T04:02:25.428Z,2.17
2019-01-14T04:05:29.456Z,3.00
2019-01-14T04:08:33.332Z,2.90
2019-01-14T04:11:37.413Z,3.10
2019-01-14T04:14:41.403Z,2.73
2019-01-14T04:17:46.267Z,2.40
2019-01-14T04:20:50.130Z,3.07
2019-01-14T04:23:54.277Z,2.70
2019-01-14T04:26:59.636Z,2.40
2019-01-14T04:30:05.039Z,2.87
2019-01-14T04:33:08.915Z,2.80
2019-01-14T04:36:12.806Z,2.67
2019-01-14T04:39:16.948Z,2.80
2019-01-14T04:42:20.854Z,2.37
2019-01-14T04:45:24.786Z,2.40
2019-01-14T04:48:28.766Z,3.47
2019-01-14T04:51:32.726Z,2.70
2019-01-14T04:54:36.634Z,2.93
2019-01-14T04:57:40.618Z,2.60
2019-01-14T05:00:44.652Z,2.87
2019-01-14T05:03:48.531Z,2.50
2019-01-14T05:06:52.412Z,2.00
2019-01-14T05:09:56.313Z,1.27
2019-01-14T05:13:00.176Z,1.57
2019-01-14T05:16:04.052Z,1.50
2019-01-14T05:19:07.914Z,2.00
2019-01-14T05:22:11.894Z,1.67
2019-01-14T05:25:15.765Z,1.47
2019-01-14T05:28:19.586Z,1.97
2019-01-14T05:31:23.511Z,1.57
2019-01-14T05:34:27.313Z,1.70
2019-01-14T05:37:37.346Z,1.70
2019-01-14T05:40:36.807Z,1.63
2019-01-14T05:43:40.762Z,1.30
2019-01-14T05:46:45.185Z,1.47
2019-01-14T05:49:49.060Z,1.70
2019-01-14T05:52:52.949Z,1.70
2019-01-14T05:55:56.922Z,1.17
2019-01-14T05:59:00.719Z,1.23
2019-01-14T06:02:04.655Z,1.77
2019-01-14T06:05:08.712Z,1.43
2019-01-14T06:08:12.574Z,1.50
2019-01-14T06:11:16.455Z,1.57
2019-01-14T06:14:20.365Z,1.33
2019-01-14T06:17:24.313Z,1.40
2019-01-14T06:20:29.159Z,1.30
2019-01-14T06:23:33.034Z,1.60
2019-01-14T06:26:36.971Z,1.77
2019-01-14T06:29:40.843Z,2.03
2019-01-14T06:32:44.624Z,2.27
2019-01-14T06:35:48.606Z,2.00
2019-01-14T06:38:52.482Z,1.63
2019-01-14T06:41:56.380Z,2.10
2019-01-14T06:45:00.179Z,2.23
2019-01-14T06:48:04.052Z,1.97
2019-01-14T06:51:07.986Z,2.30
2019-01-14T06:54:11.878Z,2.63
2019-01-14T06:57:15.809Z,2.70
2019-01-14T07:00:25.587Z,2.03
2019-01-14T07:03:29.429Z,2.70
2019-01-14T07:06:33.301Z,3.10
2019-01-14T07:09:37.151Z,2.60
2019-01-14T07:12:41.329Z,2.00
2019-01-14T07:15:45.224Z,1.80
2019-01-14T07:18:49.079Z,1.70
2019-01-14T07:21:52.959Z,2.07
2019-01-14T07:24:56.779Z,1.57
2019-01-14T07:28:00.559Z,2.13
2019-01-14T07:31:04.638Z,1.60
2019-01-14T07:34:08.428Z,1.63
2019-01-14T07:37:12.362Z,1.63
2019-01-14T07:40:16.650Z,2.53
2019-01-14T07:43:20.553Z,1.93
2019-01-14T07:46:24.430Z,2.03
2019-01-14T07:49:28.503Z,2.00
2019-01-14T07:52:32.827Z,2.13
2019-01-14T07:55:36.692Z,1.70
2019-01-14T07:58:40.871Z,1.63
2019-01-14T08:01:44.665Z,1.83
2019-01-14T08:04:48.549Z,1.90
2019-01-14T08:07:52.526Z,1.27
2019-01-14T08:10:56.329Z,1.40
2019-01-14T08:14:00.193Z,1.43
2019-01-14T08:17:04.591Z,1.20
2019-01-14T08:20:09.736Z,1.83
2019-01-14T08:23:13.811Z,1.53
2019-01-14T08:26:17.602Z,1.60
2019-01-14T08:29:21.503Z,2.00
2019-01-14T08:32:25.434Z,1.90
2019-01-14T08:35:29.301Z,1.07
2019-01-14T08:38:33.085Z,1.63
2019-01-14T08:41:39.093Z,1.50
2019-01-14T08:44:44.108Z,1.63
2019-01-14T08:47:48.184Z,1.77
2019-01-14T08:50:52.009Z,1.30
2019-01-14T08:53:55.859Z,1.13
2019-01-14T08:56:59.964Z,1.80
2019-01-14T09:00:05.197Z,1.30
2019-01-14T09:03:09.088Z,1.83
2019-01-14T09:06:13.021Z,1.23
2019-01-14T09:09:16.910Z,1.43
2019-01-14T09:12:20.782Z,1.30
2019-01-14T09:15:24.739Z,1.53
2019-01-14T09:18:28.679Z,1.53
2019-01-14T09:21:32.563Z,0.70
2019-01-14T09:24:36.528Z,1.40
2019-01-14T09:27:40.494Z,1.17
2019-01-14T09:30:44.575Z,1.53
2019-01-14T09:33:48.628Z,1.13
2019-01-14T09:36:52.483Z,1.20
2019-01-14T09:39:56.456Z,1.43
2019-01-14T09:43:00.341Z,1.20
2019-01-14T09:46:05.762Z,1.40
2019-01-14T09:49:09.614Z,0.90
2019-01-14T09:52:13.524Z,0.47
2019-01-14T09:55:19.219Z,1.10
2019-01-14T09:58:23.104Z,1.20
2019-01-14T10:01:26.884Z,1.53
2019-01-14T10:04:30.691Z,1.40
2019-01-14T10:07:34.563Z,1.73
2019-01-14T10:10:38.506Z,1.53
2019-01-14T10:13:42.563Z,1.30
2019-01-14T10:16:46.622Z,1.33
2019-01-14T10:19:50.561Z,0.97
2019-01-14T10:22:54.385Z,1.20
2019-01-14T10:25:59.313Z,1.33
2019-01-14T10:29:03.101Z,0.80
2019-01-14T10:32:06.975Z,1.60
2019-01-14T10:35:11.037Z,1.83
2019-01-14T10:38:14.895Z,1.63
2019-01-14T10:41:18.879Z,0.90
2019-01-14T10:44:22.777Z,1.10
2019-01-14T10:47:26.665Z,1.27
2019-01-14T10:50:30.521Z,0.70
2019-01-14T10:53:34.412Z,1.13
2019-01-14T10:56:38.291Z,1.70
2019-01-14T10:59:42.640Z,1.20
2019-01-14T11:02:48.138Z,1.57
2019-01-14T11:05:52.098Z,1.40
2019-01-14T11:08:58.843Z,1.27
2019-01-14T11:12:02.293Z,1.60
2019-01-14T11:15:08.793Z,1.00
2019-01-14T11:18:12.832Z,1.10
2019-01-14T11:21:16.710Z,1.17
2019-01-14T11:24:20.680Z,2.00
2019-01-14T11:27:24.940Z,1.00
2019-01-14T11:30:31.350Z,0.90
2019-01-14T11:33:39.173Z,0.70
2019-01-14T11:36:43.152Z,0.70
2019-01-14T11:39:48.042Z,0.83
2019-01-14T11:42:51.924Z,0.80
2019-01-14T11:45:55.894Z,0.80
2019-01-14T11:48:59.846Z,0.80
2019-01-14T11:52:03.802Z,0.93
2019-01-14T11:55:07.981Z,1.20
2019-01-14T11:58:11.952Z,1.80
2019-01-14T12:01:16.266Z,1.33
2019-01-14T12:04:20.046Z,1.07
2019-01-14T12:07:24.147Z,1.57
2019-01-14T12:10:28.075Z,1.17
2019-01-14T12:13:31.946Z,1.50
2019-01-14T12:16:37.296Z,1.90
2019-01-14T12:19:41.280Z,1.77
2019-01-14T12:22:45.446Z,1.50
2019-01-14T12:25:49.936Z,1.87
2019-01-14T12:28:55.265Z,1.90
2019-01-14T12:31:59.317Z,2.37
2019-01-14T12:35:04.679Z,2.07
2019-01-14T12:38:10.208Z,2.03
2019-01-14T12:41:14.017Z,1.87
2019-01-14T12:44:18.086Z,2.13
2019-01-14T12:47:22.045Z,2.30
2019-01-14T12:50:26.426Z,2.03
2019-01-14T12:53:30.604Z,1.80
2019-01-14T12:56:34.477Z,1.40
2019-01-14T12:59:38.846Z,1.90
2019-01-14T13:02:42.912Z,2.07
2019-01-14T13:05:46.745Z,1.70
2019-01-14T13:08:50.705Z,1.13
2019-01-14T13:11:54.840Z,1.40
2019-01-14T13:14:59.140Z,1.37
2019-01-14T13:18:05.399Z,2.00
2019-01-14T13:21:08.486Z,1.90
2019-01-14T13:24:12.392Z,1.97
2019-01-14T13:27:16.292Z,2.23
2019-01-14T13:30:30.874Z,1.87
2019-01-14T13:33:34.701Z,2.50
2019-01-14T13:36:38.605Z,2.57
2019-01-14T13:39:42.425Z,2.40
2019-01-14T13:42:46.433Z,2.20
2019-01-14T13:45:52.501Z,2.33
2019-01-14T13:48:55.816Z,2.20
2019-01-14T13:52:00.105Z,2.00
2019-01-14T13:55:05.451Z,2.97
2019-01-14T13:58:09.656Z,2.53
2019-01-14T14:01:13.463Z,2.73
2019-01-14T14:04:18.270Z,2.83
2019-01-14T14:07:22.384Z,2.60
2019-01-14T14:10:35.207Z,2.90
2019-01-14T14:13:39.339Z,3.23
2019-01-14T14:16:43.492Z,2.47
2019-01-14T14:19:47.316Z,1.73
2019-01-14T14:22:51.314Z,1.73
2019-01-14T14:25:55.225Z,2.50
2019-01-14T14:28:59.155Z,3.10
2019-01-14T14:32:03.537Z,3.37
2019-01-14T14:35:07.556Z,2.63
2019-01-14T14:38:11.534Z,4.00
2019-01-14T14:41:15.445Z,2.67
2019-01-14T14:44:19.408Z,3.80
2019-01-14T14:47:23.237Z,2.63
2019-01-14T14:50:27.127Z,3.87
2019-01-14T14:53:31.018Z,5.33
2019-01-14T14:56:34.887Z,2.50
2019-01-14T14:59:38.792Z,2.10
2019-01-14T15:02:42.674Z,2.30
2019-01-14T15:05:46.562Z,3.13
2019-01-14T15:08:50.365Z,2.60
2019-01-14T15:11:54.258Z,2.40
2019-01-14T15:14:58.758Z,2.67
2019-01-14T15:18:02.642Z,2.73
2019-01-14T15:21:07.012Z,2.47
2019-01-14T15:24:10.826Z,2.67
2019-01-14T15:27:14.661Z,3.53
2019-01-14T15:30:23.962Z,4.07
2019-01-14T15:33:27.872Z,3.63
2019-01-14T15:36:31.759Z,2.83
2019-01-14T15:39:35.660Z,2.00
2019-01-14T15:42:39.603Z,3.47
2019-01-14T15:45:43.428Z,2.83
2019-01-14T15:48:47.338Z,2.80
2019-01-14T15:51:51.170Z,2.17
2019-01-14T15:54:54.995Z,2.17
2019-01-14T15:57:58.976Z,2.50
2019-01-14T16:01:02.780Z,2.43
2019-01-14T16:04:06.702Z,3.60
2019-01-14T16:07:10.679Z,4.20
2019-01-14T16:10:17.365Z,3.57
2019-01-14T16:13:21.292Z,2.97
2019-01-14T16:16:25.087Z,3.97
2019-01-14T16:19:29.828Z,2.63
2019-01-14T16:22:33.709Z,2.23
2019-01-14T16:25:37.667Z,2.07
2019-01-14T16:28:41.563Z,2.50
2019-01-14T16:31:45.425Z,2.23
2019-01-14T16:34:49.351Z,2.77
2019-01-14T16:37:53.299Z,4.07
2019-01-14T16:40:57.186Z,2.83
2019-01-14T16:44:00.995Z,3.77
2019-01-14T16:47:04.949Z,2.90
2019-01-14T16:50:10.077Z,3.40
2019-01-14T16:53:13.959Z,1.70
2019-01-14T16:56:17.877Z,2.10
2019-01-14T16:59:21.661Z,2.73
2019-01-14T17:02:25.564Z,2.10
2019-01-14T17:05:29.444Z,2.07
2019-01-14T17:08:33.279Z,2.03
2019-01-14T17:11:37.205Z,1.47
2019-01-14T17:14:41.028Z,2.20
2019-01-14T17:17:44.903Z,2.20
2019-01-14T17:20:49.316Z,2.63
2019-01-14T17:23:53.291Z,2.60
2019-01-14T17:26:57.617Z,2.43
2019-01-14T17:30:01.417Z,2.80
2019-01-14T17:33:05.610Z,2.33
2019-01-14T17:36:09.457Z,3.37
2019-01-14T17:39:13.290Z,2.63
2019-01-14T17:42:17.957Z,2.30
2019-01-14T17:45:22.089Z,3.53
2019-01-14T17:48:25.872Z,3.53
2019-01-14T17:51:29.768Z,3.27
2019-01-14T17:54:33.553Z,2.20
2019-01-14T17:57:37.456Z,3.20
2019-01-14T18:00:41.265Z,3.37
2019-01-14T18:03:45.171Z,3.70
2019-01-14T18:06:49.120Z,3.80
2019-01-14T18:09:53.003Z,2.83
2019-01-14T18:12:57.032Z,3.00
2019-01-14T18:16:00.991Z,3.23
2019-01-14T18:19:04.986Z,3.00
2019-01-14T18:22:08.953Z,2.97
2019-01-14T18:25:13.212Z,2.50
2019-01-14T18:28:17.158Z,1.90
2019-01-14T18:31:21.078Z,2.80
2019-01-14T18:34:24.958Z,2.23
2019-01-14T18:37:28.953Z,2.47
2019-01-14T18:40:34.085Z,2.20
2019-01-14T18:43:38.191Z,1.97
2019-01-14T18:46:42.045Z,2.20
2019-01-14T18:49:45.921Z,2.80
2019-01-14T18:52:49.908Z,1.83
2019-01-14T18:55:53.800Z,2.80
2019-01-14T18:58:57.664Z,2.17
2019-01-14T19:02:01.531Z,2.83
2019-01-14T19:05:05.788Z,2.23
2019-01-14T19:08:09.666Z,3.20
2019-01-14T19:11:13.627Z,2.93
2019-01-14T19:14:17.529Z,2.70
2019-01-14T19:17:21.405Z,6.27
2019-01-14T19:20:27.835Z,3.97
2019-01-14T19:23:31.717Z,2.90
2019-01-14T19:26:35.685Z,3.40
2019-01-14T19:29:39.558Z,2.97
2019-01-14T19:32:43.528Z,3.30
2019-01-14T19:35:47.521Z,3.87
2019-01-14T19:38:51.335Z,2.80
2019-01-14T19:41:55.137Z,3.97
2019-01-14T19:44:59.047Z,3.03
2019-01-14T19:48:02.982Z,2.97
2019-01-14T19:51:06.898Z,4.00
2019-01-14T19:54:10.811Z,3.10
2019-01-14T19:57:16.032Z,2.97
2019-01-14T20:00:39.804Z,3.70
2019-01-14T20:03:43.693Z,3.83
2019-01-14T20:06:48.853Z,3.13
2019-01-14T20:09:52.825Z,3.30
2019-01-14T20:12:57.228Z,2.77
2019-01-14T20:16:01.396Z,3.00
2019-01-14T20:19:05.437Z,3.30
2019-01-14T20:22:09.330Z,2.73
2019-01-14T20:25:13.387Z,2.83
2019-01-14T20:28:17.259Z,2.87
2019-01-14T20:31:21.193Z,2.80
2019-01-14T20:34:25.054Z,2.93
2019-01-14T20:37:28.926Z,2.93
2019-01-14T20:40:32.726Z,2.90
2019-01-14T20:43:36.584Z,4.23
2019-01-14T20:46:41.108Z,3.47
2019-01-14T20:49:44.989Z,3.20
2019-01-14T20:52:48.884Z,3.20
2019-01-14T20:55:52.858Z,4.10
2019-01-14T20:58:56.674Z,3.07
2019-01-14T21:02:00.503Z,3.53
2019-01-14T21:05:05.221Z,3.57
2019-01-14T21:08:09.273Z,3.47
2019-01-14T21:11:13.167Z,3.57
2019-01-14T21:14:17.036Z,3.67
2019-01-14T21:17:21.056Z,3.30
2019-01-14T21:20:25.980Z,3.30
2019-01-14T21:23:29.909Z,2.67
2019-01-14T21:26:33.976Z,3.57
2019-01-14T21:29:37.906Z,3.00
2019-01-14T21:32:41.852Z,2.90
2019-01-14T21:35:45.732Z,4.03
2019-01-14T21:38:49.683Z,2.23
2019-01-14T21:41:53.588Z,3.20
2019-01-14T21:44:57.481Z,3.30
2019-01-14T21:48:01.359Z,3.87
2019-01-14T21:51:05.639Z,3.70
2019-01-14T21:54:09.590Z,3.90
2019-01-14T21:57:13.586Z,3.87
2019-01-14T22:00:22.488Z,8.03
2019-01-14T22:03:26.355Z,8.03
2019-01-14T22:06:30.227Z,5.70
2019-01-14T22:09:34.107Z,4.23
2019-01-14T22:12:38.066Z,5.03
2019-01-14T22:15:42.072Z,3.40
2019-01-14T22:18:45.955Z,4.07
2019-01-14T22:21:49.846Z,3.93
2019-01-14T22:24:53.740Z,4.27
2019-01-14T22:27:57.743Z,3.37
2019-01-14T22:31:01.721Z,3.50
2019-01-14T22:34:05.702Z,3.70
2019-01-14T22:37:09.667Z,2.50
2019-01-14T22:40:13.925Z,3.03
2019-01-14T22:43:17.803Z,3.53
2019-01-14T22:46:21.792Z,3.10
2019-01-14T22:49:25.985Z,2.27
2019-01-14T22:52:29.973Z,3.30
2019-01-14T22:55:33.866Z,3.10
2019-01-14T22:58:37.953Z,3.27
2019-01-14T23:01:47.099Z,3.33
2019-01-14T23:04:50.987Z,3.87
2019-01-14T23:07:54.872Z,2.57
2019-01-14T23:10:58.844Z,2.50
2019-01-14T23:14:02.823Z,1.90
2019-01-14T23:17:06.759Z,2.00
2019-01-14T23:20:10.922Z,2.10
2019-01-14T23:23:14.892Z,1.80
2019-01-14T23:26:18.883Z,1.80
2019-01-14T23:29:22.874Z,1.63
2019-01-14T23:32:26.760Z,1.93
2019-01-14T23:35:30.647Z,1.23
2019-01-14T23:38:34.524Z,2.37
2019-01-14T23:41:38.477Z,3.27
2019-01-14T23:44:42.534Z,2.17
2019-01-14T23:47:46.546Z,9.17
2019-01-14T23:50:50.770Z,10.73
2019-01-14T23:53:54.759Z,5.07
2019-01-14T23:56:58.746Z,17.27
